createdAt,value
2018-11-20T00:00:04.208Z,15.60
2018-11-20T00:02:54.486Z,15.97
2018-11-20T00:06:03.745Z,16.50
2018-11-20T00:08:58.015Z,17.43
2018-11-20T00:12:07.280Z,16.40
2018-11-20T00:15:06.083Z,17.50
2018-11-20T00:18:15.349Z,18.00
2018-11-20T00:21:06.394Z,18.93
2018-11-20T00:24:14.314Z,17.93
2018-11-20T00:27:04.618Z,28.20
2018-11-20T00:30:03.906Z,19.63
2018-11-20T00:32:59.100Z,18.43
2018-11-20T00:36:08.376Z,18.07
2018-11-20T00:39:09.875Z,18.90
2018-11-20T00:42:19.212Z,18.23
2018-11-20T00:45:26.906Z,16.57
2018-11-20T00:51:08.146Z,18.23
2018-11-20T00:54:09.594Z,19.17
2018-11-20T01:00:42.838Z,18.10
2018-11-20T01:03:52.100Z,18.73
2018-11-20T01:06:47.871Z,19.07
2018-11-20T01:09:52.918Z,20.90
2018-11-20T01:12:51.465Z,24.67
2018-11-20T01:16:00.256Z,19.83
2018-11-20T01:19:01.513Z,21.53
2018-11-20T01:22:10.774Z,28.00
2018-11-20T01:25:12.317Z,30.80
2018-11-20T01:28:21.619Z,22.37
2018-11-20T01:31:22.860Z,22.87
2018-11-20T01:34:32.228Z,18.93
2018-11-20T01:37:36.521Z,18.80
2018-11-20T01:40:45.785Z,38.20
2018-11-20T01:43:42.485Z,20.17
2018-11-20T01:46:51.751Z,21.47
2018-11-20T01:49:55.008Z,18.67
2018-11-20T01:53:04.318Z,18.00
2018-11-20T01:56:06.057Z,17.17
2018-11-20T01:59:15.334Z,23.77
2018-11-20T02:02:17.312Z,16.97
2018-11-20T02:08:08.958Z,15.73
2018-11-20T02:11:10.897Z,15.10
2018-11-20T02:14:22.942Z,16.10
2018-11-20T02:17:26.364Z,17.20
2018-11-20T02:20:35.694Z,14.63
2018-11-20T02:23:40.115Z,13.57
2018-11-20T02:26:49.389Z,14.60
2018-11-20T02:29:50.723Z,14.33
2018-11-20T02:32:59.992Z,13.57
2018-11-20T02:36:01.905Z,13.63
2018-11-20T02:39:11.170Z,13.57
2018-11-20T02:42:12.744Z,11.83
2018-11-20T02:45:22.000Z,12.40
2018-11-20T02:48:23.614Z,12.17
2018-11-20T02:51:32.962Z,12.07
2018-11-20T02:54:33.860Z,12.43
2018-11-20T02:57:43.138Z,12.43
2018-11-20T03:00:52.401Z,12.37
2018-11-20T03:03:53.824Z,11.20
2018-11-20T03:07:03.148Z,10.93
2018-11-20T03:09:57.495Z,10.10
2018-11-20T03:13:06.769Z,9.57
2018-11-20T03:16:08.734Z,10.53
2018-11-20T03:19:17.980Z,9.87
2018-11-20T03:22:22.215Z,10.83
2018-11-20T03:26:09.282Z,11.47
2018-11-20T03:29:18.630Z,11.17
2018-11-20T03:32:27.886Z,11.53
2018-11-20T03:35:29.315Z,11.80
2018-11-20T03:38:38.567Z,13.63
2018-11-20T03:41:40.409Z,13.00
2018-11-20T03:44:49.660Z,12.97
2018-11-20T03:47:51.078Z,12.43
2018-11-20T03:51:00.296Z,11.73
2018-11-20T03:54:05.208Z,13.07
2018-11-20T03:57:05.273Z,12.17
2018-11-20T03:59:58.658Z,13.20
2018-11-20T04:03:07.930Z,13.13
2018-11-20T04:06:09.594Z,12.80
2018-11-20T04:09:18.845Z,12.60
2018-11-20T04:12:20.404Z,13.83
2018-11-20T04:15:29.662Z,15.17
2018-11-20T04:18:31.199Z,14.57
2018-11-20T04:21:40.447Z,15.03
2018-11-20T04:24:47.882Z,16.07
2018-11-20T04:27:57.134Z,16.57
2018-11-20T04:31:18.108Z,16.13
2018-11-20T04:34:27.384Z,16.83
2018-11-20T04:37:29.169Z,17.63
2018-11-20T04:40:38.454Z,16.17
2018-11-20T04:43:40.656Z,15.17
2018-11-20T04:46:50.402Z,15.60
2018-11-20T04:53:10.620Z,16.27
2018-11-20T04:56:19.882Z,17.47
2018-11-20T04:59:27.328Z,18.73
2018-11-20T05:02:26.221Z,19.50
2018-11-20T05:05:33.272Z,22.87
2018-11-20T05:08:42.570Z,21.80
2018-11-20T05:11:43.922Z,25.77
2018-11-20T05:14:53.279Z,20.57
2018-11-20T05:17:43.619Z,21.87
2018-11-20T05:20:53.086Z,21.50
2018-11-20T05:23:54.838Z,17.10
2018-11-20T05:27:04.091Z,17.17
2018-11-20T05:30:06.273Z,17.80
2018-11-20T05:33:15.507Z,16.60
2018-11-20T05:36:17.706Z,17.20
2018-11-20T05:39:28.602Z,14.53
2018-11-20T05:42:30.477Z,14.40
2018-11-20T05:45:40.011Z,15.37
2018-11-20T05:48:42.113Z,14.60
2018-11-20T05:51:51.367Z,14.57
2018-11-20T05:54:49.392Z,15.23
2018-11-20T05:57:58.791Z,14.57
2018-11-20T06:01:00.144Z,20.90
2018-11-20T06:04:09.404Z,19.70
2018-11-20T06:07:12.112Z,18.17
2018-11-20T06:10:21.381Z,17.47
2018-11-20T06:13:21.636Z,17.87
2018-11-20T06:19:33.464Z,17.13
2018-11-20T06:22:34.901Z,16.77
2018-11-20T06:25:44.139Z,15.70
2018-11-20T06:28:46.369Z,15.27
2018-11-20T06:31:55.619Z,15.30
2018-11-20T06:34:44.033Z,18.50
2018-11-20T06:41:14.257Z,16.23
2018-11-20T06:44:16.287Z,15.57
2018-11-20T06:47:25.966Z,16.60
2018-11-20T06:50:25.165Z,19.17
2018-11-20T06:56:46.361Z,21.03
2018-11-20T06:59:47.420Z,20.73
2018-11-20T07:02:56.145Z,17.73
2018-11-20T07:05:57.352Z,15.73
2018-11-20T07:09:05.814Z,14.77
2018-11-20T07:12:06.923Z,13.03
2018-11-20T07:15:15.756Z,13.30
2018-11-20T07:18:17.345Z,13.37
2018-11-20T07:21:25.807Z,12.73
2018-11-20T07:24:27.188Z,13.03
2018-11-20T07:27:35.638Z,15.70
2018-11-20T07:30:37.394Z,22.63
2018-11-20T07:33:45.827Z,18.73
2018-11-20T07:36:41.923Z,19.43
2018-11-20T07:39:50.220Z,17.73
2018-11-20T07:42:44.980Z,16.43
2018-11-20T07:45:53.428Z,15.83
2018-11-20T07:48:46.776Z,16.77
2018-11-20T07:52:14.756Z,20.67
2018-11-20T07:55:16.262Z,19.07
2018-11-20T07:58:24.668Z,19.13
2018-11-20T08:01:29.555Z,24.43
2018-11-20T08:04:38.023Z,23.40
2018-11-20T08:07:39.487Z,19.23
2018-11-20T08:10:47.937Z,19.03
2018-11-20T08:13:49.248Z,14.27
2018-11-20T08:16:57.688Z,12.57
2018-11-20T08:19:59.344Z,11.27
2018-11-20T08:23:07.796Z,10.73
2018-11-20T08:26:15.289Z,10.87
2018-11-20T08:29:23.640Z,11.47
2018-11-20T08:32:25.202Z,11.70
2018-11-20T08:35:33.662Z,10.73
2018-11-20T08:38:35.492Z,10.37
2018-11-20T08:41:43.922Z,10.27
2018-11-20T08:44:45.365Z,10.43
2018-11-20T08:47:53.924Z,11.23
2018-11-20T08:50:54.877Z,11.00
2018-11-20T08:54:03.324Z,12.13
2018-11-20T08:57:04.778Z,14.50
2018-11-20T09:00:05.483Z,15.10
2018-11-20T09:03:06.882Z,14.53
2018-11-20T09:06:11.971Z,17.97
2018-11-20T09:09:19.646Z,16.13
2018-11-20T09:12:28.100Z,22.23
2018-11-20T09:15:29.331Z,21.23
2018-11-20T09:18:37.794Z,17.40
2018-11-20T09:21:32.546Z,17.20
2018-11-20T09:24:40.977Z,46.13
2018-11-20T09:27:41.946Z,15.93
2018-11-20T09:30:50.642Z,15.37
2018-11-20T09:33:57.860Z,15.30
2018-11-20T09:37:06.317Z,16.67
2018-11-20T09:40:21.730Z,18.63
2018-11-20T09:43:30.221Z,13.80
2018-11-20T09:46:32.087Z,14.93
2018-11-20T09:49:40.480Z,13.27
2018-11-20T09:52:41.944Z,12.77
2018-11-20T09:55:50.325Z,12.40
2018-11-20T09:58:51.397Z,11.47
2018-11-20T10:01:59.844Z,11.67
2018-11-20T10:05:01.348Z,11.37
2018-11-20T10:08:09.783Z,9.13
2018-11-20T10:11:11.068Z,9.17
2018-11-20T10:14:20.429Z,9.67
2018-11-20T10:17:21.249Z,9.03
2018-11-20T10:20:29.691Z,9.53
2018-11-20T10:23:30.824Z,9.03
2018-11-20T10:26:39.243Z,8.77
2018-11-20T10:29:40.774Z,13.50
2018-11-20T10:32:49.251Z,13.77
2018-11-20T10:35:50.719Z,19.47
2018-11-20T10:38:59.186Z,52.53
2018-11-20T10:41:58.437Z,25.53
2018-11-20T10:45:06.918Z,20.63
2018-11-20T10:48:08.394Z,16.10
2018-11-20T10:51:16.843Z,16.23
2018-11-20T10:54:18.361Z,17.63
2018-11-20T10:57:26.805Z,16.33
2018-11-20T11:00:27.772Z,14.53
2018-11-20T11:03:36.238Z,17.83
2018-11-20T11:06:37.811Z,18.93
2018-11-20T11:09:46.213Z,15.93
2018-11-20T11:12:47.838Z,14.90
2018-11-20T11:15:56.205Z,14.70
2018-11-20T11:18:51.330Z,13.77
2018-11-20T11:21:59.815Z,14.37
2018-11-20T11:25:00.498Z,15.07
2018-11-20T11:28:08.979Z,13.17
2018-11-20T11:34:16.729Z,13.10
2018-11-20T11:37:17.968Z,13.80
2018-11-20T11:40:26.989Z,13.97
2018-11-20T11:43:31.360Z,14.50
2018-11-20T11:46:39.809Z,14.30
2018-11-20T11:49:34.442Z,13.00
2018-11-20T11:52:31.453Z,12.67
2018-11-20T11:55:28.714Z,13.10
2018-11-20T11:58:37.157Z,12.30
2018-11-20T12:04:49.261Z,13.27
2018-11-20T12:07:50.648Z,13.90
2018-11-20T12:10:59.213Z,13.47
2018-11-20T12:14:01.082Z,12.80
2018-11-20T12:17:09.535Z,14.73
2018-11-20T12:20:05.168Z,17.20
2018-11-20T12:23:09.819Z,17.63
2018-11-20T12:26:11.151Z,15.33
2018-11-20T12:29:19.603Z,12.60
2018-11-20T12:32:26.782Z,37.80
2018-11-20T12:35:36.191Z,38.63
2018-11-20T12:42:04.790Z,12.77
2018-11-20T12:45:05.263Z,16.37
2018-11-20T12:48:05.868Z,13.30
2018-11-20T12:51:14.300Z,16.80
2018-11-20T12:54:21.587Z,16.80
2018-11-20T12:57:30.037Z,20.00
2018-11-20T13:00:31.420Z,16.33
2018-11-20T13:03:39.896Z,18.03
2018-11-20T13:09:54.242Z,22.33
2018-11-20T13:13:02.694Z,21.93
2018-11-20T13:16:04.173Z,33.90
2018-11-20T13:19:12.625Z,45.77
2018-11-20T13:22:13.746Z,52.27
2018-11-20T13:25:22.244Z,39.03
2018-11-20T13:28:25.846Z,74.73
2018-11-20T13:31:34.304Z,31.53
2018-11-20T13:34:37.834Z,26.67
2018-11-20T13:37:44.596Z,30.63
2018-11-20T13:41:06.831Z,37.73
2018-11-20T13:44:15.286Z,25.10
2018-11-20T13:47:14.741Z,22.80
2018-11-20T13:50:23.286Z,22.53
2018-11-20T13:53:24.787Z,18.93
2018-11-20T13:56:33.240Z,21.87
2018-11-20T13:59:35.080Z,19.60
2018-11-20T14:02:43.539Z,20.80
2018-11-20T14:05:44.684Z,19.63
2018-11-20T14:08:53.158Z,18.97
2018-11-20T14:11:46.380Z,19.90
2018-11-20T14:14:52.700Z,19.00
2018-11-20T14:17:53.712Z,31.13
2018-11-20T14:21:02.164Z,34.67
2018-11-20T14:24:00.706Z,20.13
2018-11-20T14:30:30.514Z,38.67
2018-11-20T14:33:31.821Z,63.63
2018-11-20T14:36:40.246Z,47.23
2018-11-20T14:39:41.898Z,23.97
2018-11-20T14:42:50.385Z,28.07
2018-11-20T14:45:43.886Z,26.60
2018-11-20T14:48:52.448Z,25.90
2018-11-20T14:51:49.136Z,23.77
2018-11-20T14:54:57.572Z,21.77
2018-11-20T14:57:59.126Z,25.00
2018-11-20T15:01:07.576Z,23.97
2018-11-20T15:04:08.838Z,26.27
2018-11-20T15:07:17.584Z,21.80
2018-11-20T15:10:19.396Z,23.30
2018-11-20T15:13:27.901Z,53.90
2018-11-20T15:16:29.749Z,30.47
2018-11-20T15:19:38.237Z,43.23
2018-11-20T15:22:39.887Z,39.20
2018-11-20T15:25:48.341Z,33.33
2018-11-20T15:28:52.704Z,50.33
2018-11-20T15:32:01.163Z,48.03
2018-11-20T15:34:52.041Z,50.47
2018-11-20T15:38:00.504Z,34.80
2018-11-20T15:41:04.710Z,81.97
2018-11-20T15:44:13.165Z,35.63
2018-11-20T15:47:13.990Z,32.40
2018-11-20T15:50:22.447Z,32.17
2018-11-20T15:53:23.761Z,30.73
2018-11-20T15:56:32.493Z,31.40
2018-11-20T15:59:33.676Z,35.97
2018-11-20T16:02:41.458Z,29.57
2018-11-20T16:05:48.672Z,31.57
2018-11-20T16:08:57.200Z,41.50
2018-11-20T16:11:58.993Z,30.47
2018-11-20T16:15:07.541Z,32.70
2018-11-20T16:18:04.924Z,48.67
2018-11-20T16:21:08.877Z,33.13
2018-11-20T16:24:09.866Z,29.00
2018-11-20T16:27:18.318Z,40.23
2018-11-20T16:30:18.539Z,35.37
2018-11-20T16:33:27.000Z,27.70
2018-11-20T16:36:28.634Z,25.67
2018-11-20T16:39:37.079Z,25.73
2018-11-20T16:42:38.596Z,27.37
2018-11-20T16:45:47.051Z,27.13
2018-11-20T16:48:48.756Z,29.50
2018-11-20T16:51:57.218Z,26.63
2018-11-20T16:54:52.964Z,28.13
2018-11-20T16:58:01.408Z,31.37
2018-11-20T17:00:55.320Z,32.10
2018-11-20T17:03:54.904Z,33.20
2018-11-20T17:10:06.743Z,36.77
2018-11-20T17:13:15.200Z,36.07
2018-11-20T17:16:16.730Z,36.73
2018-11-20T17:19:25.396Z,35.23
2018-11-20T17:22:29.820Z,39.90
2018-11-20T17:25:38.273Z,62.57
2018-11-20T17:28:42.900Z,44.90
2018-11-20T17:31:51.352Z,73.57
2018-11-20T17:34:52.922Z,43.97
2018-11-20T17:38:01.761Z,34.80
2018-11-20T17:41:03.782Z,40.17
2018-11-20T17:44:12.338Z,29.93
2018-11-20T17:47:19.593Z,29.63
2018-11-20T17:50:28.469Z,30.23
2018-11-20T17:53:35.681Z,29.87
2018-11-20T17:56:44.605Z,33.20
2018-11-20T17:59:45.887Z,44.47
2018-11-20T18:02:54.658Z,84.77
2018-11-20T18:05:55.641Z,73.70
2018-11-20T18:09:04.093Z,71.23
2018-11-20T18:12:05.269Z,62.83
2018-11-20T18:15:13.729Z,40.07
2018-11-20T18:18:15.407Z,34.30
2018-11-20T18:21:24.205Z,40.43
2018-11-20T18:24:25.831Z,33.67
2018-11-20T18:30:54.463Z,63.43
2018-11-20T18:33:55.809Z,44.37
2018-11-20T18:37:04.247Z,53.40
2018-11-20T18:40:05.916Z,36.37
2018-11-20T18:43:14.348Z,36.47
2018-11-20T18:46:15.757Z,29.17
2018-11-20T18:49:24.465Z,34.73
2018-11-20T18:52:28.569Z,29.67
2018-11-20T18:55:37.022Z,65.40
2018-11-20T18:58:38.288Z,35.50
2018-11-20T19:01:46.723Z,37.47
2018-11-20T19:04:46.354Z,41.93
2018-11-20T19:07:44.461Z,32.77
2018-11-20T19:10:45.683Z,39.97
2018-11-20T19:13:54.117Z,45.80
2018-11-20T19:16:55.273Z,39.47
2018-11-20T19:20:03.797Z,59.40
2018-11-20T19:23:13.413Z,42.67
2018-11-20T19:26:19.708Z,43.07
2018-11-20T19:29:28.357Z,50.47
2018-11-20T19:32:28.032Z,43.37
2018-11-20T19:35:36.476Z,39.57
2018-11-20T19:38:38.069Z,40.47
2018-11-20T19:41:46.640Z,33.87
2018-11-20T19:44:48.194Z,31.93
2018-11-20T19:47:57.522Z,31.50
2018-11-20T19:50:59.168Z,47.57
2018-11-20T19:54:07.779Z,44.40
2018-11-20T19:57:08.961Z,44.17
2018-11-20T20:00:17.473Z,39.57
2018-11-20T20:03:19.233Z,41.00
2018-11-20T20:06:27.783Z,39.40
2018-11-20T20:09:33.172Z,37.50
2018-11-20T20:12:41.680Z,37.63
2018-11-20T20:15:44.639Z,36.40
2018-11-20T20:18:52.255Z,38.87
2018-11-20T20:21:53.789Z,33.97
2018-11-20T20:25:02.281Z,39.77
2018-11-20T20:28:03.955Z,33.93
2018-11-20T20:31:12.444Z,40.50
2018-11-20T20:34:17.659Z,51.13
2018-11-20T20:37:26.096Z,58.67
2018-11-20T20:40:30.339Z,44.47
2018-11-20T20:43:39.096Z,57.07
2018-11-20T20:46:38.565Z,53.77
2018-11-20T20:49:47.006Z,58.67
2018-11-20T20:52:48.357Z,70.83
2018-11-20T20:55:56.828Z,45.93
2018-11-20T20:58:56.472Z,45.63
2018-11-20T21:02:05.268Z,47.40
2018-11-20T21:04:59.741Z,39.53
2018-11-20T21:08:08.408Z,43.80
2018-11-20T21:11:10.121Z,35.87
2018-11-20T21:14:18.816Z,35.47
2018-11-20T21:17:20.147Z,37.50
2018-11-20T21:20:28.594Z,39.07
2018-11-20T21:23:29.771Z,35.27
2018-11-20T21:26:38.551Z,33.87
2018-11-20T21:29:39.974Z,33.80
2018-11-20T21:32:48.855Z,40.07
2018-11-20T21:35:50.546Z,38.33
2018-11-20T21:38:59.012Z,35.27
2018-11-20T21:42:00.024Z,54.27
2018-11-20T21:45:08.492Z,38.90
2018-11-20T21:48:09.762Z,37.80
2018-11-20T21:51:18.244Z,33.97
2018-11-20T21:54:20.122Z,38.50
2018-11-20T21:57:28.639Z,39.23
2018-11-20T22:00:31.672Z,32.77
2018-11-20T22:03:40.186Z,39.03
2018-11-20T22:06:41.620Z,37.47
2018-11-20T22:09:50.215Z,36.63
2018-11-20T22:12:51.753Z,35.13
2018-11-20T22:16:00.209Z,36.33
2018-11-20T22:19:01.492Z,37.67
2018-11-20T22:22:09.960Z,38.37
2018-11-20T22:25:10.986Z,37.10
2018-11-20T22:28:19.453Z,35.40
2018-11-20T22:31:14.313Z,31.17
2018-11-20T22:34:03.402Z,30.27
2018-11-20T22:40:02.514Z,34.53
2018-11-20T22:42:51.588Z,32.83
2018-11-20T22:46:00.061Z,35.30
2018-11-20T22:48:49.131Z,40.33
2018-11-20T22:51:38.232Z,40.33
2018-11-20T22:54:39.351Z,36.87
2018-11-20T22:57:47.794Z,33.20
2018-11-20T23:00:49.209Z,36.03
2018-11-20T23:04:00.249Z,32.20
2018-11-20T23:06:59.320Z,31.93
2018-11-20T23:09:48.781Z,36.07
2018-11-20T23:12:31.269Z,32.50
2018-11-20T23:15:20.710Z,42.37
2018-11-20T23:18:03.248Z,34.77
2018-11-20T23:20:52.700Z,32.07
2018-11-20T23:23:35.150Z,30.80
2018-11-20T23:26:24.605Z,31.50
2018-11-20T23:29:06.585Z,26.97
2018-11-20T23:34:57.468Z,25.20
2018-11-20T23:37:46.909Z,27.97
2018-11-20T23:40:29.096Z,25.83
2018-11-20T23:43:18.549Z,28.87
2018-11-20T23:46:00.842Z,25.17
2018-11-20T23:48:50.283Z,20.83
2018-11-20T23:51:33.059Z,22.57
2018-11-20T23:54:21.828Z,20.57
2018-11-20T23:57:04.272Z,23.10
2018-11-20T23:59:53.710Z,21.63
